Snow/Ice From: 17-12-2017 10:00 Until: 18-12-2017 06:00 warning for: Snow/Ice Level: Yellow info button

Although rather usual in this region, locally or potentially dangerous phenomena are expected. (such as local winds, summer thunderstorms, rising streams or high waves) Be aware and pay attention to the latest weather updates, especially if you carry out activities exposed to weather or close to a stream or shoreline. 


Meteo18 Weather Cam more information Meteo18 Weather Cam


Thunder radar more information blitzortung!


warning for Snow/Ice more information rain snow radar


Visit our other weather sites:

Template documentation
and downloads

And another site



Weather Underground History page Text

Daily Summary for August 14, 2017 Units:  English    Metric   Both
« Previous Day
Next Day »
Daily Weekly Monthly Yearly Custom
  High: Low: Average:
Temperature: 85.8 °F 54.3 °F 69.6 °F
Dew Point: 64.4 °F 52.7 °F 58.6 °F
Humidity: 95 % 41 % 71 %
Wind Speed: 7 mph 0 mph 1.2 mph
Wind Gust: 11 mph - -
Wind:- - SSE
Pressure: 30.2 in 30 in -
Precipitation: 0 in    
Historical Graphs
 
 
Tabular Data for August 14, 2017
Time Temperature Dew Point Pressure Wind Wind Speed Wind Gust Humidity Rainfall Rate (Hourly)
00:02 59.9 °F 55.8 °F 30.2 in Calm   1 mph 86 % 0 in
00:07 59.7 °F 55.6 °F 30.2 in Calm   1 mph 86 % 0 in
00:12 59.5 °F 55.4 °F 30.2 in Calm   1 mph 86 % 0 in
00:17 59.4 °F 55.2 °F 30.2 in Calm   1 mph 86 % 0 in
00:22 59.4 °F 55.2 °F 30.2 in Calm   1 mph 86 % 0 in
00:32 59.2 °F 55.4 °F 30.2 in Calm   1 mph 87 % 0 in
00:42 59 °F 55.2 °F 30.2 in Calm   1 mph 87 % 0 in
00:47 58.8 °F 55 °F 30.2 in Calm   1 mph 87 % 0 in
00:57 58.5 °F 54.9 °F 30.2 in Calm   2 mph 88 % 0 in
01:02 58.6 °F 55 °F 30.2 in Calm   2 mph 88 % 0 in
01:07 58.6 °F 55 °F 30.2 in Calm   2 mph 88 % 0 in
01:12 58.5 °F 54.9 °F 30.2 in Calm   2 mph 88 % 0 in
01:17 58.3 °F 54.7 °F 30.2 in Calm   2 mph 88 % 0 in
01:22 58.1 °F 54.5 °F 30.2 in Calm   2 mph 88 % 0 in
01:32 57.9 °F 54.7 °F 30.2 in Calm   2 mph 89 % 0 in
01:37 57.9 °F 54.7 °F 30.2 in Calm   2 mph 89 % 0 in
01:42 57.9 °F 54.7 °F 30.2 in Calm   2 mph 89 % 0 in
01:47 57.9 °F 54.7 °F 30.2 in Calm   2 mph 89 % 0 in
01:52 57.9 °F 54.7 °F 30.2 in Calm     89 % 0 in
01:57 57.9 °F 54.3 °F 30.2 in NNE 1 mph 1 mph 88 % 0 in
02:02 57.7 °F 54.1 °F 30.1 in Calm   2 mph 88 % 0 in
02:07 57.6 °F 54.3 °F 30.1 in North 1 mph 2 mph 89 % 0 in
02:12 57.6 °F 54.3 °F 30.1 in Calm   2 mph 89 % 0 in
02:17 57.6 °F 54.3 °F 30.1 in Calm   1 mph 89 % 0 in
02:22 57.6 °F 54.3 °F 30.1 in Calm   1 mph 89 % 0 in
02:27 57.6 °F 54.3 °F 30.1 in Calm   1 mph 89 % 0 in
02:32 57.4 °F 54.1 °F 30.1 in Calm   1 mph 89 % 0 in
02:37 57.4 °F 54.1 °F 30.1 in Calm   1 mph 89 % 0 in
02:42 57.4 °F 54.1 °F 30.1 in Calm   1 mph 89 % 0 in
02:47 57.4 °F 54.1 °F 30.1 in Calm   1 mph 89 % 0 in
02:57 57 °F 54.1 °F 30.1 in Calm   1 mph 90 % 0 in
03:02 57 °F 54.1 °F 30.1 in Calm   1 mph 90 % 0 in
03:07 57 °F 54.1 °F 30.1 in Calm   1 mph 90 % 0 in
03:12 56.8 °F 54 °F 30.1 in Calm   1 mph 90 % 0 in
03:17 56.8 °F 54 °F 30.1 in Calm     90 % 0 in
03:22 56.8 °F 54 °F 30.1 in Calm     90 % 0 in
03:27 56.8 °F 54 °F 30.1 in Calm     90 % 0 in
03:32 57 °F 54.1 °F 30.1 in Calm     90 % 0 in
03:37 57 °F 54.1 °F 30.1 in Calm     90 % 0 in
03:42 57 °F 54.1 °F 30.1 in Calm     90 % 0 in
03:52 57.2 °F 54.3 °F 30.1 in Calm     90 % 0 in
03:57 57.2 °F 54.3 °F 30.1 in Calm     90 % 0 in
04:02 57.2 °F 54.3 °F 30.1 in Calm     90 % 0 in
04:07 56.8 °F 54 °F 30.1 in Calm     90 % 0 in
04:12 56.8 °F 54.3 °F 30.1 in Calm     91 % 0 in
04:17 56.8 °F 54.3 °F 30.1 in Calm     91 % 0 in
04:22 56.7 °F 54.1 °F 30.1 in Calm     91 % 0 in
04:27 56.5 °F 54 °F 30.1 in Calm     91 % 0 in
04:32 56.5 °F 54 °F 30.1 in Calm     91 % 0 in
04:37 56.5 °F 54.1 °F 30.1 in Calm     92 % 0 in
04:42 56.8 °F 54.5 °F 30.1 in Calm     92 % 0 in
04:47 56.8 °F 54.3 °F 30.1 in Calm     91 % 0 in
04:52 56.7 °F 54.1 °F 30.1 in Calm     91 % 0 in
04:57 56.7 °F 54.3 °F 30.1 in Calm     92 % 0 in
05:02 56.5 °F 54.1 °F 30.1 in Calm     92 % 0 in
05:12 55.6 °F 53.1 °F 30.1 in Calm     91 % 0 in
05:17 55.2 °F 52.9 °F 30.1 in Calm     92 % 0 in
05:22 55.2 °F 53.2 °F 30.1 in Calm     93 % 0 in
05:27 55.4 °F 53.4 °F 30.1 in Calm     93 % 0 in
05:32 55.2 °F 53.6 °F 30.1 in Calm     94 % 0 in
05:42 55.4 °F 53.8 °F 30.1 in Calm     94 % 0 in
05:47 55.2 °F 53.2 °F 30.1 in Calm     93 % 0 in
05:52 55.2 °F 53.6 °F 30.1 in Calm     94 % 0 in
05:57 55 °F 53.4 °F 30.1 in Calm     94 % 0 in
06:02 54.9 °F 53.2 °F 30.1 in Calm     94 % 0 in
06:12 54.5 °F 52.9 °F 30.1 in Calm     94 % 0 in
06:17 54.3 °F 52.7 °F 30.1 in Calm     94 % 0 in
06:22 54.5 °F 53.1 °F 30.1 in Calm     95 % 0 in
06:32 54.7 °F 53.2 °F 30.1 in North 1 mph 2 mph 95 % 0 in
06:37 54.3 °F 52.7 °F 30.1 in North 2 mph 2 mph 94 % 0 in
06:42 54.3 °F 52.9 °F 30.1 in North 2 mph 2 mph 95 % 0 in
06:47 54.5 °F 53.1 °F 30.1 in North 1 mph 2 mph 95 % 0 in
06:52 54.5 °F 53.1 °F 30.1 in North 1 mph 3 mph 95 % 0 in
06:57 54.3 °F 52.7 °F 30.1 in NNE 1 mph 3 mph 94 % 0 in
07:02 54.3 °F 52.9 °F 30.1 in North 2 mph 2 mph 95 % 0 in
07:07 54.7 °F 53.1 °F 30.1 in North 1 mph 2 mph 94 % 0 in
07:12 54.9 °F 53.2 °F 30.1 in Calm   2 mph 94 % 0 in
07:17 55.2 °F 53.6 °F 30.1 in Calm   2 mph 94 % 0 in
07:22 55.8 °F 54.1 °F 30.1 in Calm   2 mph 94 % 0 in
07:27 55.9 °F 54.3 °F 30.1 in Calm     94 % 0 in
07:32 56.1 °F 54.1 °F 30.1 in Calm     93 % 0 in
07:37 56.5 °F 54.5 °F 30.1 in Calm     93 % 0 in
07:42 56.8 °F 54.9 °F 30.1 in Calm     93 % 0 in
07:47 57.4 °F 55.4 °F 30.1 in North 1 mph   93 % 0 in
07:57 57.6 °F 55.2 °F 30.1 in NNE 2 mph 2 mph 92 % 0 in
08:02 57.9 °F 55.6 °F 30.1 in Calm   2 mph 92 % 0 in
08:12 58.8 °F 56.1 °F 30.1 in North 1 mph 3 mph 91 % 0 in
08:17 59.2 °F 56.5 °F 30.1 in Calm   2 mph 91 % 0 in
08:22 59.5 °F 56.7 °F 30.1 in North 1 mph 2 mph 90 % 0 in
08:32 59.9 °F 56.7 °F 30.1 in Calm   3 mph 89 % 0 in
08:37 60.3 °F 57 °F 30.1 in North 1 mph 3 mph 89 % 0 in
08:42 60.6 °F 57.4 °F 30.1 in North 1 mph 3 mph 89 % 0 in
08:47 61 °F 57.7 °F 30.1 in NNE 1 mph 2 mph 89 % 0 in
08:52 61.2 °F 57.9 °F 30.1 in NNE 1 mph 3 mph 89 % 0 in
09:02 62.1 °F 58.5 °F 30.1 in NNE 1 mph 3 mph 88 % 0 in
09:12 63.1 °F 58.8 °F 30.1 in Calm   3 mph 86 % 0 in
09:17 63.9 °F 59.2 °F 30.1 in NNE 1 mph 2 mph 85 % 0 in
09:22 64.2 °F 59.5 °F 30.1 in Calm   2 mph 85 % 0 in
09:32 65.7 °F 60.1 °F 30.1 in ENE 2 mph 2 mph 82 % 0 in
09:37 65.7 °F 60.4 °F 30.1 in Calm   3 mph 83 % 0 in
09:42 66 °F 60.4 °F 30.1 in Calm   3 mph 82 % 0 in
09:47 66.2 °F 60.3 °F 30.1 in ENE 2 mph 4 mph 81 % 0 in
09:52 66.6 °F 60.6 °F 30.1 in ENE 2 mph 4 mph 81 % 0 in
09:57 67.1 °F 60.8 °F 30.1 in ENE 3 mph 4 mph 80 % 0 in
10:02 67.3 °F 60.6 °F 30.1 in NE 2 mph 4 mph 79 % 0 in
10:12 68.5 °F 61.3 °F 30.1 in ENE 1 mph 5 mph 78 % 0 in
10:17 68.5 °F 61 °F 30.1 in Calm   5 mph 77 % 0 in
10:22 69.4 °F 61.2 °F 30.1 in East 4 mph 7 mph 75 % 0 in
10:27 69.8 °F 61.5 °F 30.1 in ESE 1 mph 7 mph 75 % 0 in
10:32 70.3 °F 61.7 °F 30.1 in ENE 1 mph 7 mph 74 % 0 in
10:37 70.5 °F 61.5 °F 30.1 in ESE 3 mph 7 mph 73 % 0 in
10:42 70.3 °F 61.7 °F 30.1 in ENE 3 mph 7 mph 74 % 0 in
10:47 70.9 °F 62.2 °F 30.1 in ENE 3 mph 8 mph 74 % 0 in
10:57 71.8 °F 62.2 °F 30.1 in NE 2 mph 8 mph 72 % 0 in
11:02 72 °F 62.1 °F 30.1 in East 3 mph 6 mph 71 % 0 in
11:12 72.1 °F 62.2 °F 30.1 in ESE 3 mph 6 mph 71 % 0 in
11:17 72.5 °F 62.6 °F 30.1 in ENE 5 mph 6 mph 71 % 0 in
11:22 72.5 °F 62.6 °F 30.1 in East 4 mph 7 mph 71 % 0 in
11:27 72.5 °F 62.2 °F 30.1 in East 2 mph 8 mph 70 % 0 in
11:32 72.9 °F 62.4 °F 30.1 in ENE 2 mph 8 mph 70 % 0 in
11:37 73 °F 62.2 °F 30.1 in ESE 2 mph 8 mph 69 % 0 in
11:42 73.6 °F 62.8 °F 30.1 in ENE 1 mph 10 mph 69 % 0 in
11:47 73.9 °F 62.8 °F 30.1 in East 7 mph 10 mph 68 % 0 in
11:52 74.1 °F 63.3 °F 30.1 in ENE 3 mph 10 mph 69 % 0 in
11:57 73.9 °F 62.2 °F 30.1 in ENE 5 mph 8 mph 67 % 0 in
12:02 74.1 °F 63.3 °F 30.1 in NE 7 mph 8 mph 69 % 0 in
12:12 75.4 °F 63.7 °F 30.1 in SE 3 mph 10 mph 67 % 0 in
12:17 75.7 °F 62.8 °F 30.1 in East 5 mph 10 mph 64 % 0 in
12:22 75.2 °F 62.6 °F 30.1 in ENE 5 mph 10 mph 65 % 0 in
12:27 75.7 °F 63.1 °F 30.1 in ESE 4 mph 10 mph 65 % 0 in
12:32 76.6 °F 63.1 °F 30.1 in SE 1 mph 10 mph 63 % 0 in
12:37 76.5 °F 62.4 °F 30.1 in ENE 2 mph 10 mph 62 % 0 in
12:42 77.2 °F 63.7 °F 30.1 in SSE 4 mph 11 mph 63 % 0 in
12:47 77.4 °F 62.4 °F 30.1 in SSE 2 mph 11 mph 60 % 0 in
12:52 77.7 °F 62.8 °F 30.1 in SE 2 mph 9 mph 60 % 0 in
12:57 78.4 °F 63 °F 30.1 in SSE 4 mph 9 mph 59 % 0 in
13:02 78.3 °F 61.7 °F 30.1 in ENE 4 mph 8 mph 57 % 0 in
13:07 78.3 °F 62.2 °F 30.1 in WSW 2 mph 8 mph 58 % 0 in
13:12 78.6 °F 62.1 °F 30.1 in ESE 5 mph 9 mph 57 % 0 in
13:17 79.2 °F 62.1 °F 30.1 in ESE 2 mph 11 mph 56 % 0 in
13:22 79 °F 61.9 °F 30.1 in SSE 2 mph 11 mph 56 % 0 in
13:32 79.3 °F 63.7 °F 30.1 in South 3 mph 6 mph 59 % 0 in
13:42 78.8 °F 62.2 °F 30.1 in SE 1 mph 7 mph 57 % 0 in
13:47 79.2 °F 62.6 °F 30.1 in ESE 3 mph 6 mph 57 % 0 in
13:52 79.2 °F 63.1 °F 30.1 in ENE 5 mph 8 mph 58 % 0 in
13:57 79.5 °F 62.4 °F 30.1 in SE 3 mph 8 mph 56 % 0 in
14:02 80.1 °F 63.5 °F 30.1 in ESE 4 mph 7 mph 57 % 0 in
14:07 80.4 °F 62.8 °F 30.1 in SW 1 mph 7 mph 55 % 0 in
14:12 80.4 °F 63.9 °F 30.1 in South 2 mph 9 mph 57 % 0 in
14:17 80.6 °F 64.4 °F 30.1 in SSW 2 mph 9 mph 58 % 0 in
14:22 80.4 °F 63.3 °F 30.1 in SSE 2 mph 9 mph 56 % 0 in
14:32 80.2 °F 62.1 °F 30.1 in SE 3 mph 9 mph 54 % 0 in
14:37 81 °F 61.7 °F 30.1 in South 4 mph 9 mph 52 % 0 in
14:42 80.6 °F 60.8 °F 30.1 in SW 3 mph 7 mph 51 % 0 in
14:52 81.7 °F 62.4 °F 30.1 in SE 4 mph 8 mph 52 % 0 in
14:57 81.9 °F 62.4 °F 30 in South 2 mph 8 mph 52 % 0 in
15:02 82 °F 62.1 °F 30 in East 5 mph 8 mph 51 % 0 in
15:07 81.9 °F 60.8 °F 30 in South 2 mph 7 mph 49 % 0 in
15:12 81.9 °F 61.3 °F 30 in East 2 mph 7 mph 50 % 0 in
15:17 82 °F 61.5 °F 30 in SSE 1 mph 7 mph 50 % 0 in
15:22 82.6 °F 62.1 °F 30 in Calm   7 mph 50 % 0 in
15:32 83.3 °F 62.1 °F 30 in SE 1 mph 5 mph 49 % 0 in
15:37 83.3 °F 62.8 °F 30 in East 4 mph 5 mph 50 % 0 in
15:42 83.7 °F 62.4 °F 30 in South 2 mph 5 mph 49 % 0 in
15:47 83.5 °F 61.2 °F 30 in East 4 mph 5 mph 47 % 0 in
15:52 83.1 °F 62.1 °F 30 in SSE 2 mph 7 mph 49 % 0 in
15:57 83.3 °F 61.5 °F 30 in SSE 3 mph 7 mph 48 % 0 in
16:02 82.9 °F 61.2 °F 30 in SW 4 mph 7 mph 48 % 0 in
16:07 82.9 °F 61.9 °F 30 in SSE 3 mph 7 mph 49 % 0 in
16:12 83.1 °F 62.1 °F 30 in SSW 1 mph 6 mph 49 % 0 in
16:17 83.5 °F 61.2 °F 30 in SSW 3 mph 7 mph 47 % 0 in
16:22 83.5 °F 59.9 °F 30 in SW 5 mph 7 mph 45 % 0 in
16:32 82.8 °F 59.2 °F 30 in Calm   10 mph 45 % 0 in
16:37 83.1 °F 59.5 °F 30 in WSW 3 mph 10 mph 45 % 0 in
16:42 83.7 °F 60.1 °F 30 in South 4 mph 7 mph 45 % 0 in
16:47 83.5 °F 59.4 °F 30 in West 1 mph 9 mph 44 % 0 in
16:52 83.7 °F 60.1 °F 30 in SW 4 mph 9 mph 45 % 0 in
16:57 83.5 °F 61.7 °F 30 in SW 4 mph 9 mph 48 % 0 in
17:02 83.8 °F 62.6 °F 30 in ESE 2 mph 8 mph 49 % 0 in
17:07 84.4 °F 60.1 °F 30 in East 1 mph 10 mph 44 % 0 in
17:12 84.9 °F 59.9 °F 30 in SE 1 mph 10 mph 43 % 0 in
17:22 83.1 °F 59 °F 30 in WSW 4 mph 9 mph 44 % 0 in
17:27 83.1 °F 59.5 °F 30 in West 2 mph 9 mph 45 % 0 in
17:32 83.7 °F 59.4 °F 30 in South 2 mph 8 mph 44 % 0 in
17:37 84 °F 59.2 °F 30 in WSW 4 mph 6 mph 43 % 0 in
17:42 84 °F 60.4 °F 30 in SW 4 mph 6 mph 45 % 0 in
17:47 84.2 °F 61.2 °F 30 in SSW 2 mph 9 mph 46 % 0 in
17:52 84.6 °F 59.5 °F 30 in Calm   9 mph 43 % 0 in
18:17 85.3 °F 60.3 °F 30 in Calm   6 mph 43 % 0 in
18:22 85.6 °F 61.9 °F 30 in South 1 mph 6 mph 45 % 0 in
18:27 85.8 °F 60.1 °F 30 in South 3 mph 6 mph 42 % 0 in
18:32 85.8 °F 60.8 °F 30 in SW 2 mph 6 mph 43 % 0 in
18:37 85.8 °F 60.8 °F 30 in Calm   6 mph 43 % 0 in
18:42 85.5 °F 59.7 °F 30 in SW 1 mph 6 mph 42 % 0 in
18:52 84.9 °F 59.2 °F 30 in SW 2 mph 5 mph 42 % 0 in
18:57 85.3 °F 61 °F 30 in Calm   5 mph 44 % 0 in
19:02 85.5 °F 61.7 °F 30 in WSW 4 mph 5 mph 45 % 0 in
19:12 84.9 °F 59.9 °F 30 in SW 2 mph 5 mph 43 % 0 in
19:17 84.6 °F 59.5 °F 30 in WSW 1 mph 5 mph 43 % 0 in
19:22 84.7 °F 61 °F 30 in Calm   5 mph 45 % 0 in
19:27 84.9 °F 59.2 °F 30 in West 2 mph 5 mph 42 % 0 in
19:32 84.7 °F 59.2 °F 30 in WSW 3 mph 3 mph 42 % 0 in
19:42 84.6 °F 60.3 °F 30 in Calm   3 mph 44 % 0 in
19:47 84.7 °F 59.2 °F 30 in Calm   3 mph 42 % 0 in
19:52 84.9 °F 59.9 °F 30 in WNW 1 mph 2 mph 43 % 0 in
19:57 84.9 °F 59.2 °F 30 in Calm   2 mph 42 % 0 in
20:02 84.7 °F 59.7 °F 30 in Calm   2 mph 43 % 0 in
20:07 85.1 °F 58.8 °F 30 in Calm   2 mph 41 % 0 in
20:12 84.7 °F 59.7 °F 30 in Calm   2 mph 43 % 0 in
20:17 83.8 °F 59.5 °F 30 in Calm     44 % 0 in
20:22 83.1 °F 60.3 °F 30 in Calm     46 % 0 in
20:32 81.9 °F 60.3 °F 30 in Calm     48 % 0 in
20:37 81.1 °F 60.8 °F 30 in Calm     50 % 0 in
20:42 80.4 °F 61.2 °F 30 in Calm     52 % 0 in
20:47 79.2 °F 60.1 °F 30 in Calm     52 % 0 in
20:52 78.6 °F 59.5 °F 30 in Calm     52 % 0 in
20:57 78.3 °F 60.3 °F 30 in Calm     54 % 0 in
21:02 78.1 °F 60.1 °F 30 in Calm     54 % 0 in
21:12 77.2 °F 60.8 °F 30 in Calm     57 % 0 in
21:17 76.8 °F 61 °F 30 in Calm     58 % 0 in
21:22 75.9 °F 61 °F 30 in Calm     60 % 0 in
21:32 75.4 °F 61.5 °F 30 in Calm     62 % 0 in
21:37 74.8 °F 61.9 °F 30 in Calm     64 % 0 in
21:42 74.1 °F 61.5 °F 30 in Calm     65 % 0 in
21:52 73 °F 61.5 °F 30 in Calm     67 % 0 in
21:57 72.9 °F 61.3 °F 30 in Calm     67 % 0 in
22:02 72.3 °F 61.5 °F 30 in Calm     69 % 0 in
22:12 71.1 °F 61.2 °F 30 in Calm     71 % 0 in
22:17 70.9 °F 61 °F 30 in Calm     71 % 0 in
22:22 71.2 °F 61 °F 30 in Calm     70 % 0 in
22:27 71.4 °F 60.8 °F 30 in Calm     69 % 0 in
22:32 71.6 °F 60.8 °F 30 in Calm     69 % 0 in
22:37 71.2 °F 61 °F 30 in Calm     70 % 0 in
22:42 70.7 °F 60.8 °F 30 in Calm     71 % 0 in
22:52 70.2 °F 60.3 °F 30 in Calm     71 % 0 in
22:57 70 °F 60.1 °F 30 in Calm     71 % 0 in
23:02 70.2 °F 60.6 °F 30 in Calm     72 % 0 in
23:07 69.4 °F 60.4 °F 30 in Calm     73 % 0 in
23:12 69.6 °F 60.6 °F 30 in Calm     73 % 0 in
23:17 69.6 °F 60.6 °F 30 in Calm     73 % 0 in
23:22 69.3 °F 60.3 °F 30 in Calm     73 % 0 in
23:32 69.3 °F 60.3 °F 30 in Calm     73 % 0 in
23:37 69.3 °F 60.3 °F 30 in Calm     73 % 0 in
23:42 69.1 °F 60.4 °F 30 in Calm     74 % 0 in
23:47 68.5 °F 59.9 °F 30 in Calm     74 % 0 in
23:52 68.2 °F 59.9 °F 30 in Calm     75 % 0 in
23:57 68.2 °F 59.9 °F 30 in Calm     75 % 0 in
Meteo18
Compliments of Weather Underground - 4 mb

Script developed by  Jim McMurry - jmcmurry@mwt.net Adapted for the template by  Wim van der Kuil - Leuven-Template.eu

You find our weather info also at:

European Weather Network

Weather Underground

Equipment we use:

Weather-station
Davis Vue

Weather-program
Meteohub

Weather-server
Raspberry PI 2 B+

Provider
1 and 1

Davis Vue

Meteohub

Raspberry PI 2 B+

1 and 1